Time;durP1;ratioP1;P1;durP2;ratioP2;P2;SDS_P1;SDS_P2;PMS_P1;PMS_P2;Temp;Humidity;BMP_temperature;BMP_pressure;BME280_temperature;BME280_humidity;BME280_pressure;Samples;Min_cycle;Max_cycle;Signal;HPM_P1;HPM_P2
2023/05/22 00:00:17;;;;;;;3.88;2.10;;;;;;;16.99;70.40;99863.44;6197101;28;20054;-70
2023/05/22 00:03:18;;;;;;;5.03;2.35;;;;;;;16.92;69.08;99862.31;6186968;28;20047;-70
2023/05/22 00:06:20;;;;;;;3.33;2.13;;;;;;;16.86;71.69;99861.09;6194552;28;20557;-70
2023/05/22 00:09:23;;;;;;;3.25;2.05;;;;;;;16.78;70.84;99866.19;6184621;28;20115;-70
2023/05/22 00:12:24;;;;;;;2.60;2.00;;;;;;;16.71;71.74;99859.78;6191793;28;20066;-70
2023/05/22 00:15:25;;;;;;;4.30;2.42;;;;;;;16.67;71.50;99858.41;6180483;28;20146;-70
2023/05/22 00:18:25;;;;;;;3.80;1.98;;;;;;;16.58;70.02;99864.50;6191817;28;20386;-70
2023/05/22 00:21:26;;;;;;;2.70;1.67;;;;;;;16.49;71.22;99858.22;6189574;28;20078;-70
2023/05/22 00:24:27;;;;;;;3.97;2.20;;;;;;;16.44;71.31;99856.00;6192721;28;20064;-70
2023/05/22 00:27:28;;;;;;;3.42;2.10;;;;;;;16.39;72.05;99850.34;6200722;28;20474;-70
2023/05/22 00:30:29;;;;;;;3.83;1.80;;;;;;;16.37;75.41;99846.16;6232964;28;20043;-70
2023/05/22 00:33:30;;;;;;;11.73;2.03;;;;;;;16.30;72.71;99854.59;6231968;28;20059;-70
2023/05/22 00:36:31;;;;;;;2.50;1.85;;;;;;;16.27;71.62;99849.59;6170258;28;20058;-70
2023/05/22 00:39:32;;;;;;;2.28;1.52;;;;;;;16.22;71.95;99843.91;6196965;28;20112;-70
2023/05/22 00:42:32;;;;;;;6.07;1.83;;;;;;;16.19;75.02;99846.81;6279911;28;20051;-70
2023/05/22 00:45:33;;;;;;;4.75;1.90;;;;;;;16.10;74.85;99856.38;6190156;28;20152;-70
2023/05/22 00:48:34;;;;;;;2.72;1.90;;;;;;;16.06;76.14;99852.34;6198919;28;20066;-70
2023/05/22 00:51:35;;;;;;;3.50;2.08;;;;;;;15.99;76.15;99853.00;6210835;28;20058;-71
2023/05/22 00:54:36;;;;;;;3.60;1.88;;;;;;;15.88;73.54;99854.75;6225378;28;20064;-70
2023/05/22 00:57:41;;;;;;;8.00;2.08;;;;;;;15.88;75.93;99846.84;6197282;28;20050;-71
2023/05/22 01:00:42;;;;;;;3.22;2.05;;;;;;;15.82;78.40;99851.81;6195038;28;20531;-71
2023/05/22 01:03:44;;;;;;;2.65;2.03;;;;;;;15.75;76.80;99850.66;6194434;28;20129;-71
2023/05/22 01:06:46;;;;;;;6.25;2.40;;;;;;;15.67;76.01;99835.53;6187256;28;20142;-70
2023/05/22 01:09:47;;;;;;;5.50;2.15;;;;;;;15.59;77.71;99838.00;6228773;28;20048;-71
2023/05/22 01:13:02;;;;;;;3.45;1.88;;;;;;;15.61;77.67;99838.69;6257566;28;20058;-71
2023/05/22 01:16:08;;;;;;;2.30;1.60;;;;;;;15.58;79.54;99841.56;6190580;28;20509;-71
2023/05/22 01:19:38;;;;;;;2.17;1.70;;;;;;;15.52;76.56;99840.28;6189106;28;20046;-70
2023/05/22 01:22:59;;;;;;;4.45;2.22;;;;;;;15.47;80.10;99830.16;6183499;28;20058;-71
2023/05/22 01:26:17;;;;;;;2.22;1.88;;;;;;;15.39;80.32;99824.72;6201115;28;20066;-70
2023/05/22 01:29:45;;;;;;;3.35;2.08;;;;;;;15.40;79.99;99831.66;6204921;28;20050;-70
2023/05/22 01:32:47;;;;;;;7.72;2.10;;;;;;;15.30;81.89;99821.09;6227596;28;20053;-71
2023/05/22 01:35:52;;;;;;;2.65;1.88;;;;;;;15.15;83.68;99822.34;6206752;28;20181;-70
2023/05/22 01:38:54;;;;;;;4.57;2.53;;;;;;;15.08;83.68;99810.72;6196376;28;20049;-71
2023/05/22 01:41:56;;;;;;;3.40;2.47;;;;;;;15.07;83.75;99817.78;6195976;28;20046;-70
2023/05/22 01:44:56;;;;;;;2.78;2.40;;;;;;;15.03;85.90;99821.63;6194563;28;20050;-70
2023/05/22 01:47:57;;;;;;;7.50;2.50;;;;;;;14.92;89.03;99826.91;6268089;28;20052;-70
2023/05/22 01:51:13;;;;;;;3.15;2.10;;;;;;;14.78;91.99;99827.22;6198870;28;20070;-70
2023/05/22 01:54:23;;;;;;;5.07;2.42;;;;;;;14.81;93.81;99825.19;6194687;28;20114;-70
2023/05/22 01:57:29;;;;;;;4.15;2.50;;;;;;;14.90;93.11;99821.78;6241428;28;20165;-71
2023/05/22 02:00:32;;;;;;;4.13;2.50;;;;;;;14.90;94.95;99813.91;6270536;28;20054;-70
2023/05/22 02:03:35;;;;;;;4.28;2.75;;;;;;;14.92;95.31;99832.16;6195533;28;20090;-70
2023/05/22 02:06:37;;;;;;;2.60;2.28;;;;;;;14.89;95.72;99822.75;6205323;28;20051;-70
2023/05/22 02:09:39;;;;;;;5.22;2.42;;;;;;;14.90;97.77;99823.56;6226616;28;20052;-71
2023/05/22 02:12:41;;;;;;;3.55;2.25;;;;;;;14.80;99.12;99822.66;6204228;28;20058;-70
2023/05/22 02:15:46;;;;;;;3.90;3.17;;;;;;;14.75;99.10;99820.44;6206396;28;20076;-71
2023/05/22 02:18:47;;;;;;;4.70;2.55;;;;;;;14.80;97.96;99827.91;6296464;27;20137;-71
2023/05/22 02:21:48;;;;;;;4.82;2.80;;;;;;;14.78;98.76;99829.84;6199112;28;20054;-70
2023/05/22 02:24:49;;;;;;;3.65;2.65;;;;;;;14.74;99.51;99829.25;6194369;28;20529;-71
2023/05/22 02:27:49;;;;;;;4.38;2.55;;;;;;;14.71;99.17;99832.16;6193789;28;20054;-71
2023/05/22 02:30:50;;;;;;;5.40;2.55;;;;;;;14.73;99.30;99834.66;6201343;28;20075;-71
2023/05/22 02:33:51;;;;;;;6.72;3.25;;;;;;;14.71;100.00;99832.97;6221091;28;20050;-71
2023/05/22 02:36:52;;;;;;;3.90;2.80;;;;;;;14.60;100.00;99835.66;6196133;28;20129;-71
2023/05/22 02:39:52;;;;;;;4.65;2.83;;;;;;;14.48;100.00;99844.50;6211618;28;20061;-71
2023/05/22 02:42:53;;;;;;;5.97;2.67;;;;;;;14.56;100.00;99836.84;6201914;28;20078;-71
2023/05/22 02:45:56;;;;;;;4.90;2.83;;;;;;;14.47;100.00;99841.00;6196107;28;20061;-71
2023/05/22 02:48:58;;;;;;;6.05;2.60;;;;;;;14.47;100.00;99842.81;6186680;28;20062;-71
2023/05/22 02:51:58;;;;;;;4.45;2.60;;;;;;;14.51;100.00;99838.97;6188438;28;20055;-70
2023/05/22 02:55:00;;;;;;;3.15;2.25;;;;;;;14.53;100.00;99834.44;6222921;28;20157;-70
2023/05/22 02:58:01;;;;;;;6.38;2.55;;;;;;;14.41;100.00;99836.28;6192629;28;20485;-70
2023/05/22 03:01:05;;;;;;;4.55;2.80;;;;;;;14.39;100.00;99829.47;6195796;28;20111;-70
2023/05/22 03:04:06;;;;;;;11.75;2.70;;;;;;;14.30;100.00;99834.50;6179720;28;20054;-71
2023/05/22 03:07:07;;;;;;;5.40;2.45;;;;;;;14.41;100.00;99832.78;6194684;28;20134;-70
2023/05/22 03:10:07;;;;;;;4.22;2.53;;;;;;;14.45;100.00;99836.84;6194987;28;20093;-71
2023/05/22 03:13:08;;;;;;;4.32;2.60;;;;;;;14.37;100.00;99832.22;6199969;28;20096;-70
2023/05/22 03:16:09;;;;;;;5.43;3.08;;;;;;;14.36;100.00;99829.72;6189240;28;20054;-70
2023/05/22 03:19:11;;;;;;;4.93;2.60;;;;;;;14.45;100.00;99824.53;6194436;28;20053;-70
2023/05/22 03:22:12;;;;;;;9.50;2.78;;;;;;;14.53;100.00;99834.44;6207124;28;20460;-70
2023/05/22 03:25:13;;;;;;;5.60;2.67;;;;;;;14.41;100.00;99836.28;6183540;28;20050;-70
2023/05/22 03:28:13;;;;;;;3.45;2.67;;;;;;;14.32;100.00;99832.59;6280538;28;20043;-70
2023/05/22 03:31:14;;;;;;;3.75;2.47;;;;;;;14.37;100.00;99831.38;6188949;28;20165;-71
2023/05/22 03:34:15;;;;;;;4.82;2.58;;;;;;;14.46;100.00;99823.59;6197051;28;20387;-70
2023/05/22 03:37:16;;;;;;;5.40;2.50;;;;;;;14.54;100.00;99833.50;6198008;28;20452;-71
2023/05/22 03:40:17;;;;;;;7.38;2.60;;;;;;;14.61;100.00;99832.06;6171564;28;20046;-71
2023/05/22 03:43:19;;;;;;;4.20;2.70;;;;;;;14.61;100.00;99825.97;6182324;28;20051;-71
2023/05/22 03:46:20;;;;;;;6.15;2.70;;;;;;;14.60;100.00;99832.16;6188539;28;20478;-70
2023/05/22 03:49:21;;;;;;;3.65;2.60;;;;;;;14.64;100.00;99829.19;6188217;28;20050;-70
2023/05/22 03:52:24;;;;;;;5.18;2.72;;;;;;;14.76;100.00;99837.00;6206348;28;20444;-71
2023/05/22 03:55:25;;;;;;;5.15;2.80;;;;;;;14.73;100.00;99832.84;6183486;28;20053;-70
2023/05/22 03:58:28;;;;;;;3.47;2.38;;;;;;;14.81;100.00;99835.69;6183048;28;20055;-71
2023/05/22 04:01:29;;;;;;;4.53;2.85;;;;;;;14.79;100.00;99837.59;6181341;28;20062;-71
2023/05/22 04:04:37;;;;;;;5.10;3.28;;;;;;;14.90;100.00;99836.72;6188432;28;20054;-70
2023/05/22 04:07:37;;;;;;;4.03;2.92;;;;;;;14.91;100.00;99831.34;6194129;28;20137;-70
2023/05/22 04:10:41;;;;;;;3.38;2.47;;;;;;;15.01;100.00;99827.94;6188820;28;20058;-69
2023/05/22 04:13:42;;;;;;;8.65;3.13;;;;;;;15.05;100.00;99845.97;6189442;28;20066;-68
2023/05/22 04:16:42;;;;;;;4.85;2.83;;;;;;;15.20;100.00;99848.28;6179843;28;20198;-70
2023/05/22 04:19:43;;;;;;;5.53;2.95;;;;;;;15.31;100.00;99850.81;6189827;28;20054;-69
2023/05/22 04:22:47;;;;;;;3.92;2.67;;;;;;;15.20;100.00;99858.78;6187829;28;20076;-69
2023/05/22 04:25:49;;;;;;;4.85;2.67;;;;;;;15.23;100.00;99859.34;6191338;28;20046;-68
2023/05/22 04:28:49;;;;;;;5.27;3.13;;;;;;;15.34;100.00;99861.09;6191280;28;20046;-69
2023/05/22 04:31:53;;;;;;;4.97;2.53;;;;;;;15.41;99.41;99864.03;6194676;28;20421;-69
2023/05/22 04:34:57;;;;;;;4.82;2.85;;;;;;;15.56;97.66;99873.25;6290671;28;20046;-68
2023/05/22 04:38:00;;;;;;;5.05;2.75;;;;;;;15.65;96.04;99876.91;6192159;28;20055;-69
2023/05/22 04:41:02;;;;;;;3.88;2.70;;;;;;;15.75;94.76;99871.72;6194647;28;20051;-70
2023/05/22 04:44:03;;;;;;;4.10;2.43;;;;;;;15.78;92.80;99867.03;6204686;28;20055;-69
2023/05/22 04:47:04;;;;;;;6.40;3.17;;;;;;;15.90;91.22;99859.88;6268443;28;20487;-69
2023/05/22 04:50:05;;;;;;;4.43;2.58;;;;;;;16.05;90.11;99871.69;6215756;28;20631;-69
2023/05/22 04:53:06;;;;;;;3.70;2.57;;;;;;;16.14;88.86;99864.81;6201996;28;20057;-69
2023/05/22 04:56:07;;;;;;;3.97;2.60;;;;;;;16.07;86.02;99866.31;6255868;28;20050;-70
2023/05/22 04:59:14;;;;;;;4.38;2.53;;;;;;;16.22;85.49;99859.69;6206101;28;20531;-70
2023/05/22 05:02:15;;;;;;;6.05;2.90;;;;;;;16.29;83.47;99863.47;6220592;28;20573;-69
2023/05/22 05:05:16;;;;;;;3.65;2.47;;;;;;;16.34;82.02;99870.13;6206595;28;20054;-69
2023/05/22 05:08:17;;;;;;;4.15;2.30;;;;;;;16.46;80.78;99864.59;6247505;28;20103;-69
2023/05/22 05:11:18;;;;;;;3.33;2.40;;;;;;;16.52;78.47;99869.34;6209110;28;20061;-69
2023/05/22 05:14:21;;;;;;;3.95;2.10;;;;;;;16.66;77.26;99869.91;6211778;28;20128;-69
2023/05/22 05:17:22;;;;;;;6.25;1.92;;;;;;;16.70;78.11;99873.94;6205411;28;20042;-69
2023/05/22 05:20:23;;;;;;;4.20;2.20;;;;;;;16.77;74.19;99875.03;6201408;28;20137;-69
2023/05/22 05:23:24;;;;;;;5.57;2.45;;;;;;;16.80;73.08;99879.19;6178377;28;20050;-69
2023/05/22 05:26:26;;;;;;;2.95;2.05;;;;;;;16.91;73.08;99869.41;6200724;28;20050;-69
2023/05/22 05:29:26;;;;;;;5.78;2.00;;;;;;;17.00;72.70;99875.63;6217234;28;20129;-69
2023/05/22 05:32:27;;;;;;;2.75;1.70;;;;;;;17.07;71.00;99867.97;6324684;28;20056;-70
2023/05/22 05:35:28;;;;;;;3.35;2.20;;;;;;;17.16;68.56;99875.06;6285206;28;20054;-69
2023/05/22 05:38:29;;;;;;;2.42;1.90;;;;;;;17.41;67.48;99868.38;6212916;28;20110;-70
2023/05/22 05:41:29;;;;;;;3.38;2.13;;;;;;;17.47;67.75;99869.59;6204820;28;20049;-70
2023/05/22 05:44:30;;;;;;;2.72;1.92;;;;;;;17.60;66.80;99875.38;6221022;28;20065;-70
2023/05/22 05:47:31;;;;;;;3.42;2.25;;;;;;;17.83;68.44;99881.22;6217007;28;20488;-69
2023/05/22 05:50:32;;;;;;;2.55;1.88;;;;;;;17.98;65.55;99878.91;6246322;28;20048;-69
2023/05/22 05:53:33;;;;;;;8.05;2.40;;;;;;;18.10;64.80;99875.13;6241092;28;20112;-70
2023/05/22 05:56:34;;;;;;;2.75;1.95;;;;;;;18.28;65.08;99877.81;6213847;28;20077;-70
2023/05/22 05:59:38;;;;;;;3.78;1.75;;;;;;;18.44;61.93;99874.50;6207475;28;20050;-70
2023/05/22 06:02:38;;;;;;;1.90;1.38;;;;;;;18.65;62.41;99882.13;6204793;28;20524;-70
2023/05/22 06:05:39;;;;;;;2.63;1.73;;;;;;;18.74;62.19;99883.06;6235121;28;20086;-71
2023/05/22 06:08:41;;;;;;;3.25;2.05;;;;;;;18.76;59.27;99883.75;6213076;28;20046;-71
2023/05/22 06:11:41;;;;;;;13.40;2.25;;;;;;;19.06;59.40;99873.78;6251415;28;20150;-70
2023/05/22 06:14:42;;;;;;;5.45;1.65;;;;;;;19.23;58.90;99878.25;6220750;28;20050;-70
2023/05/22 06:17:43;;;;;;;6.53;2.17;;;;;;;19.10;57.62;99868.03;6246174;28;20046;-70
2023/05/22 06:20:44;;;;;;;2.92;1.85;;;;;;;19.41;58.09;99869.44;6209504;28;20050;-70
2023/05/22 06:23:45;;;;;;;3.25;1.70;;;;;;;19.50;56.27;99871.16;6214072;28;20151;-71
2023/05/22 06:26:45;;;;;;;6.72;2.78;;;;;;;19.46;55.17;99854.75;6202045;28;20053;-71
2023/05/22 06:29:48;;;;;;;4.80;2.10;;;;;;;19.71;56.59;99862.88;6209992;28;20055;-69
2023/05/22 06:32:51;;;;;;;2.55;1.85;;;;;;;20.05;58.63;99865.50;6207935;28;20075;-70
2023/05/22 06:35:55;;;;;;;4.65;1.88;;;;;;;19.87;53.69;99865.59;6210370;28;20421;-70
2023/05/22 06:38:56;;;;;;;2.10;1.60;;;;;;;20.01;54.21;99855.38;6235365;28;20137;-69
2023/05/22 06:41:57;;;;;;;2.27;1.77;;;;;;;20.21;53.79;99861.25;6209213;28;20060;-70
2023/05/22 06:44:57;;;;;;;3.33;2.13;;;;;;;20.35;54.25;99868.59;6240351;28;20093;-71
2023/05/22 06:47:58;;;;;;;2.80;1.90;;;;;;;20.58;52.90;99867.97;6216944;28;20054;-71
2023/05/22 06:50:59;;;;;;;5.03;2.47;;;;;;;20.78;53.83;99873.84;6225008;28;20073;-71
2023/05/22 06:53:59;;;;;;;2.43;1.83;;;;;;;20.91;52.76;99869.69;6263362;28;20051;-72
2023/05/22 06:57:02;;;;;;;2.70;1.70;;;;;;;21.09;55.42;99869.53;6236037;28;20058;-70
2023/05/22 07:00:10;;;;;;;3.78;2.03;;;;;;;21.20;52.26;99870.19;6306141;27;20146;-71
2023/05/22 07:03:11;;;;;;;8.10;2.28;;;;;;;21.41;50.95;99872.31;6240747;28;20489;-71
2023/05/22 07:06:12;;;;;;;3.63;2.10;;;;;;;21.18;49.86;99867.69;6257750;28;20057;-70
2023/05/22 07:09:14;;;;;;;2.25;1.85;;;;;;;21.47;49.94;99877.81;6256653;28;20072;-71
2023/05/22 07:12:15;;;;;;;3.03;1.88;;;;;;;21.77;54.25;99875.44;6223269;28;20601;-71
2023/05/22 07:15:15;;;;;;;2.13;1.73;;;;;;;21.97;49.82;99870.56;6260988;28;20054;-71
2023/05/22 07:18:18;;;;;;;12.30;2.50;;;;;;;22.11;51.93;99875.16;6248149;28;20101;-70
2023/05/22 07:21:22;;;;;;;5.10;1.80;;;;;;;22.10;49.06;99872.66;6212323;28;20512;-71
2023/05/22 07:24:23;;;;;;;3.72;2.05;;;;;;;22.29;48.52;99872.25;6219774;28;20056;-71
2023/05/22 07:27:23;;;;;;;4.23;2.50;;;;;;;22.50;50.10;99873.47;6227641;28;20081;-71
2023/05/22 07:30:24;;;;;;;3.30;2.03;;;;;;;22.68;48.56;99862.56;6268547;28;20040;-71
2023/05/22 07:33:25;;;;;;;6.90;2.50;;;;;;;22.91;48.12;99863.38;6209229;28;20054;-70
2023/05/22 07:36:26;;;;;;;3.40;1.90;;;;;;;22.83;48.03;99865.28;6254245;28;20498;-71
2023/05/22 07:39:27;;;;;;;3.40;1.93;;;;;;;22.92;46.96;99866.91;6215909;28;20058;-70
2023/05/22 07:42:29;;;;;;;4.30;2.10;;;;;;;23.21;48.35;99862.69;6263263;28;20106;-71
2023/05/22 07:45:29;;;;;;;5.10;2.35;;;;;;;23.05;48.87;99855.66;6247814;28;20048;-71
2023/05/22 07:48:30;;;;;;;5.63;1.93;;;;;;;23.39;48.54;99862.34;6210644;28;20405;-71
2023/05/22 07:51:31;;;;;;;4.05;2.60;;;;;;;23.33;46.27;99862.06;6206022;28;20054;-71
2023/05/22 07:54:32;;;;;;;3.53;2.20;;;;;;;23.50;45.18;99864.56;6214355;28;20069;-71
2023/05/22 07:57:35;;;;;;;2.37;1.90;;;;;;;23.55;44.84;99864.84;6237003;28;20130;-71
2023/05/22 08:00:36;;;;;;;3.42;2.00;;;;;;;23.62;45.17;99864.94;6238787;28;20581;-71
2023/05/22 08:03:36;;;;;;;3.08;2.08;;;;;;;23.42;45.97;99868.13;6229021;28;20825;-71
2023/05/22 08:06:38;;;;;;;5.70;2.73;;;;;;;23.91;45.39;99858.81;6223990;28;20053;-71
2023/05/22 08:09:39;;;;;;;5.15;1.60;;;;;;;23.94;44.12;99850.44;6286288;28;20512;-71
2023/05/22 08:12:40;;;;;;;4.78;2.17;;;;;;;24.52;45.92;99848.69;6233293;28;20057;-71
2023/05/22 08:15:41;;;;;;;5.33;2.00;;;;;;;24.60;44.96;99855.72;6261508;28;20056;-71
2023/05/22 08:18:42;;;;;;;2.83;2.13;;;;;;;24.92;43.61;99859.75;6246124;28;20738;-70
2023/05/22 08:21:44;;;;;;;3.05;1.77;;;;;;;25.02;41.42;99853.22;6225362;28;20050;-71
2023/05/22 08:24:45;;;;;;;7.67;1.63;;;;;;;24.75;40.88;99850.34;6226845;28;20504;-71
2023/05/22 08:27:45;;;;;;;3.63;2.00;;;;;;;25.02;42.72;99855.91;6308724;28;20054;-71
2023/05/22 08:30:46;;;;;;;9.03;2.00;;;;;;;25.21;42.39;99851.81;6214031;28;20064;-72
2023/05/22 08:33:47;;;;;;;3.10;1.83;;;;;;;25.32;41.88;99852.06;6238755;28;20042;-71
2023/05/22 08:36:48;;;;;;;2.43;1.83;;;;;;;25.38;41.88;99855.81;6213356;28;20074;-71
2023/05/22 08:39:49;;;;;;;2.53;1.85;;;;;;;25.06;44.11;99850.00;6243455;28;20101;-71
2023/05/22 08:42:53;;;;;;;3.70;2.27;;;;;;;25.61;45.21;99846.72;6259312;28;20408;-71
2023/05/22 08:46:04;;;;;;;4.35;2.03;;;;;;;25.39;40.94;99852.13;6283211;28;20105;-71
2023/05/22 08:49:09;;;;;;;5.35;2.15;;;;;;;25.37;42.85;99845.31;6233815;28;20050;-71
2023/05/22 08:52:17;;;;;;;4.53;2.17;;;;;;;25.42;43.93;99838.38;6199640;28;20077;-71
2023/05/22 08:55:18;;;;;;;3.47;1.95;;;;;;;25.76;42.04;99852.78;6253101;28;20048;-71
2023/05/22 08:58:20;;;;;;;3.20;2.10;;;;;;;26.07;41.67;99841.63;6222079;28;20709;-71
2023/05/22 09:01:22;;;;;;;3.25;2.15;;;;;;;26.22;40.35;99840.66;6230559;28;20055;-71
2023/05/22 09:04:23;;;;;;;4.07;2.00;;;;;;;26.05;41.09;99841.00;6202807;28;20094;-72
2023/05/22 09:07:26;;;;;;;5.05;2.38;;;;;;;26.47;40.39;99838.25;6214085;28;20098;-71
2023/05/22 09:10:27;;;;;;;2.92;2.00;;;;;;;25.98;41.31;99837.47;6212125;28;20125;-71
2023/05/22 09:13:29;;;;;;;4.23;2.57;;;;;;;25.82;41.67;99845.78;6238060;28;20066;-71
2023/05/22 09:16:30;;;;;;;2.95;2.00;;;;;;;26.44;39.91;99843.97;6203193;28;20057;-71
2023/05/22 09:19:31;;;;;;;5.13;2.60;;;;;;;26.00;40.92;99837.28;6207653;28;20050;-71
2023/05/22 09:22:39;;;;;;;3.63;2.08;;;;;;;26.51;40.49;99844.84;6213648;28;20088;-71
2023/05/22 09:25:41;;;;;;;3.60;2.20;;;;;;;26.60;40.11;99840.97;6237352;28;20380;-71
2023/05/22 09:28:45;;;;;;;3.22;2.28;;;;;;;26.59;41.25;99836.66;6213038;28;20179;-72
2023/05/22 09:31:46;;;;;;;5.22;2.15;;;;;;;26.57;42.57;99838.72;6218593;28;20049;-71
2023/05/22 09:34:47;;;;;;;6.50;2.40;;;;;;;27.19;40.34;99827.81;6218311;28;20054;-71
2023/05/22 09:37:51;;;;;;;3.80;2.10;;;;;;;27.21;39.90;99823.06;6201370;28;20046;-71
2023/05/22 09:40:53;;;;;;;4.25;2.13;;;;;;;26.65;40.12;99821.66;6216207;28;20064;-71
2023/05/22 09:43:54;;;;;;;3.10;1.95;;;;;;;26.94;39.06;99823.09;6206942;28;20054;-71
2023/05/22 09:46:55;;;;;;;2.63;2.08;;;;;;;27.16;41.42;99813.00;6249079;28;20054;-71
2023/05/22 09:49:59;;;;;;;3.35;2.35;;;;;;;27.01;39.66;99807.84;6228640;28;20106;-71
2023/05/22 09:53:04;;;;;;;3.80;2.25;;;;;;;27.23;38.33;99804.97;6227020;28;20529;-71
2023/05/22 09:56:12;;;;;;;3.20;2.03;;;;;;;26.73;38.23;99811.56;6224623;28;20062;-71
2023/05/22 09:59:15;;;;;;;4.68;2.00;;;;;;;27.06;40.12;99799.22;6207173;28;20144;-71
2023/05/22 10:02:17;;;;;;;3.92;1.88;;;;;;;27.09;42.58;99804.94;6214876;28;20072;-71
2023/05/22 10:05:22;;;;;;;;;;;;;;;26.84;39.68;99802.09;6216799;28;20054;-71
2023/05/22 10:08:27;;;;;;;3.83;2.30;;;;;;;26.44;39.56;99806.53;6218250;28;20281;-71
2023/05/22 10:11:29;;;;;;;4.13;2.10;;;;;;;27.14;40.25;99804.34;6286903;28;20121;-71
2023/05/22 10:14:31;;;;;;;3.58;2.38;;;;;;;27.34;38.34;99798.97;6203212;28;20138;-71
2023/05/22 10:17:33;;;;;;;4.22;2.10;;;;;;;26.33;39.01;99807.97;6297902;28;20047;-72
2023/05/22 10:20:34;;;;;;;3.88;2.10;;;;;;;26.67;37.57;99803.53;6248121;28;20053;-72
2023/05/22 10:23:35;;;;;;;5.60;2.13;;;;;;;27.53;39.20;99795.44;6202413;28;20057;-72
2023/05/22 10:26:37;;;;;;;2.88;2.10;;;;;;;28.13;39.50;99794.38;6220333;28;20405;-71
2023/05/22 10:29:53;;;;;;;4.10;2.28;;;;;;;28.28;37.76;99794.09;6225402;28;20059;-72
2023/05/22 10:32:59;;;;;;;8.38;2.20;;;;;;;28.27;36.84;99789.75;6314498;28;20430;-71
2023/05/22 10:36:02;;;;;;;5.55;2.20;;;;;;;28.17;39.11;99789.41;6321571;28;20060;-71
2023/05/22 10:39:42;;;;;;;2.20;1.85;;;;;;;28.21;36.80;99787.94;6253187;28;20051;-71
2023/05/22 10:42:43;;;;;;;3.15;1.85;;;;;;;27.81;38.27;99788.13;6267026;28;20058;-71
2023/05/22 10:45:45;;;;;;;3.63;2.08;;;;;;;28.64;37.99;99787.25;6301551;28;20052;-71
2023/05/22 10:48:48;;;;;;;3.90;1.88;;;;;;;28.94;39.34;99784.75;6283467;28;20048;-71
2023/05/22 10:51:55;;;;;;;8.45;2.00;;;;;;;28.95;36.38;99783.69;6310773;28;20077;-71
2023/05/22 10:55:00;;;;;;;7.10;2.13;;;;;;;29.11;39.77;99785.03;6244497;28;20092;-72
2023/05/22 10:58:12;;;;;;;3.08;1.90;;;;;;;28.01;36.29;99769.28;6297686;28;20097;-72
2023/05/22 11:01:17;;;;;;;4.65;2.03;;;;;;;28.76;36.50;99768.59;6283991;28;20389;-71
2023/05/22 11:04:18;;;;;;;3.15;1.80;;;;;;;28.83;36.59;99772.88;6221145;28;20054;-71
2023/05/22 11:07:19;;;;;;;2.33;1.90;;;;;;;28.41;36.20;99769.84;6210030;28;20046;-71
2023/05/22 11:10:51;;;;;;;5.00;2.13;;;;;;;28.57;36.80;99755.09;6208666;28;20107;-71
2023/05/22 11:14:02;;;;;;;2.65;2.00;;;;;;;28.86;36.57;99750.13;6214526;28;20064;-72
2023/05/22 11:17:04;;;;;;;3.10;2.03;;;;;;;29.04;34.89;99747.47;6210070;28;20401;-71
2023/05/22 11:20:21;;;;;;;5.07;1.98;;;;;;;29.60;37.92;99742.94;6207354;28;20130;-71
2023/05/22 11:23:24;;;;;;;3.53;2.15;;;;;;;28.69;34.90;99734.56;6216442;28;20073;-72
2023/05/22 11:26:26;;;;;;;2.20;1.70;;;;;;;28.96;34.93;99736.19;6219753;28;20080;-71
2023/05/22 11:29:29;;;;;;;2.33;1.73;;;;;;;29.41;32.80;99735.94;6194269;28;20051;-71
2023/05/22 11:32:30;;;;;;;3.55;2.05;;;;;;;29.10;34.72;99735.84;6265846;28;20051;-71
2023/05/22 11:35:31;;;;;;;2.83;1.85;;;;;;;29.36;34.33;99733.09;6198190;28;20057;-71
2023/05/22 11:38:32;;;;;;;2.60;2.03;;;;;;;29.78;33.66;99739.44;6216777;28;20141;-72
2023/05/22 11:41:33;;;;;;;2.75;1.65;;;;;;;29.60;38.26;99732.19;6221980;28;20045;-71
2023/05/22 11:44:33;;;;;;;4.10;2.05;;;;;;;30.07;35.32;99726.22;6233134;28;20082;-72
2023/05/22 11:47:35;;;;;;;2.22;1.92;;;;;;;30.26;33.28;99726.94;6238751;28;20056;-72
2023/05/22 11:50:38;;;;;;;2.47;1.92;;;;;;;30.12;34.52;99723.63;6265962;28;20125;-71
2023/05/22 11:53:40;;;;;;;7.35;1.95;;;;;;;28.95;35.15;99721.91;6228437;28;20500;-71
2023/05/22 11:56:40;;;;;;;3.72;1.85;;;;;;;29.16;34.90;99720.72;6253201;28;20111;-71
2023/05/22 11:59:45;;;;;;;3.55;1.83;;;;;;;29.10;35.76;99718.91;6271496;28;20532;-71
2023/05/22 12:02:46;;;;;;;2.13;1.70;;;;;;;29.49;34.77;99717.66;6314262;28;20056;-71
2023/05/22 12:05:49;;;;;;;3.53;2.20;;;;;;;29.60;34.53;99718.75;6236429;28;20061;-72
2023/05/22 12:08:50;;;;;;;2.17;1.75;;;;;;;28.79;34.21;99717.16;6231870;28;20050;-71
2023/05/22 12:11:54;;;;;;;3.20;2.03;;;;;;;29.11;34.73;99704.44;6256482;28;20057;-71
2023/05/22 12:14:56;;;;;;;3.10;1.70;;;;;;;29.44;36.90;99712.09;6198074;28;20040;-72
2023/05/22 12:17:57;;;;;;;1.55;1.45;;;;;;;30.18;37.87;99708.44;6223604;28;20566;-72
2023/05/22 12:20:57;;;;;;;3.78;2.05;;;;;;;29.87;32.25;99708.47;6208704;28;20050;-72
2023/05/22 12:24:02;;;;;;;1.88;1.50;;;;;;;29.86;34.18;99700.66;6207043;28;20055;-71
2023/05/22 12:27:07;;;;;;;2.65;1.92;;;;;;;30.10;34.89;99702.38;6213189;28;20063;-72
2023/05/22 12:30:11;;;;;;;3.65;1.95;;;;;;;30.57;33.98;99696.25;6222299;28;20050;-72
2023/05/22 12:33:14;;;;;;;1.58;1.48;;;;;;;30.71;31.54;99700.34;6304624;28;20126;-72
2023/05/22 12:36:14;;;;;;;2.55;1.90;;;;;;;30.64;31.13;99696.13;6206285;28;20060;-71
2023/05/22 12:39:16;;;;;;;2.13;1.40;;;;;;;30.26;31.32;99698.16;6239323;28;20130;-72
2023/05/22 12:42:17;;;;;;;3.00;1.65;;;;;;;30.56;32.38;99683.00;6217055;28;20133;-72
2023/05/22 12:45:18;;;;;;;2.88;1.73;;;;;;;30.73;34.30;99681.25;6211847;28;20421;-71
2023/05/22 12:48:19;;;;;;;5.53;2.00;;;;;;;30.13;33.63;99685.75;6217100;28;20061;-72
2023/05/22 12:51:20;;;;;;;3.13;2.10;;;;;;;29.65;32.28;99692.00;6287617;28;20049;-72
2023/05/22 12:54:20;;;;;;;2.60;1.92;;;;;;;29.42;33.10;99684.66;6248658;28;20133;-72
2023/05/22 12:57:21;;;;;;;2.85;1.73;;;;;;;28.99;33.69;99677.47;6272439;28;20062;-72
2023/05/22 13:00:22;;;;;;;3.25;2.08;;;;;;;28.14;35.52;99686.88;6227048;28;20064;-71
2023/05/22 13:03:23;;;;;;;5.60;2.00;;;;;;;29.00;34.40;99676.44;6219936;28;20379;-71
2023/05/22 13:06:26;;;;;;;2.83;2.22;;;;;;;29.15;34.17;99677.97;6218196;28;20053;-72
2023/05/22 13:09:27;;;;;;;5.53;2.33;;;;;;;29.81;35.18;99673.63;6225207;28;20496;-72
2023/05/22 13:12:29;;;;;;;4.03;2.20;;;;;;;29.42;32.92;99668.53;6194571;28;20055;-71
2023/05/22 13:15:31;;;;;;;1.85;1.65;;;;;;;29.63;31.47;99667.22;6204661;28;20057;-71
2023/05/22 13:18:32;;;;;;;2.63;1.70;;;;;;;29.96;39.34;99665.13;6239887;28;20507;-71
2023/05/22 13:21:32;;;;;;;4.68;1.73;;;;;;;29.84;35.98;99671.31;6241947;28;20052;-72
2023/05/22 13:24:33;;;;;;;2.42;1.63;;;;;;;29.95;33.39;99663.50;6309226;28;20451;-71
2023/05/22 13:27:34;;;;;;;2.00;1.75;;;;;;;29.71;36.27;99658.03;6197333;28;20050;-71
2023/05/22 13:43:58;;;;;;;2.17;1.80;;;;;;;29.82;34.33;99654.56;6304716;27;20383;-69
2023/05/22 13:46:59;;;;;;;3.92;1.98;;;;;;;29.85;34.06;99656.78;6298794;28;20120;-69
2023/05/22 13:50:00;;;;;;;3.88;1.98;;;;;;;29.88;35.37;99650.16;6301452;28;20472;-69
2023/05/22 13:53:03;;;;;;;5.93;2.35;;;;;;;29.90;31.42;99642.69;6291474;28;20060;-69
2023/05/22 13:56:06;;;;;;;6.63;1.70;;;;;;;29.65;30.20;99640.09;6299555;28;20065;-70
2023/05/22 13:59:07;;;;;;;3.28;2.20;;;;;;;29.39;34.18;99639.44;6293583;28;20048;-70
2023/05/22 14:02:07;;;;;;;3.20;1.77;;;;;;;28.79;33.28;99632.06;6299490;28;20113;-69
2023/05/22 14:05:11;;;;;;;3.15;2.00;;;;;;;28.71;35.27;99632.34;6301319;28;20045;-70
2023/05/22 14:08:12;;;;;;;3.05;1.83;;;;;;;28.52;32.07;99631.53;6306340;28;20052;-70
2023/05/22 14:11:13;;;;;;;2.85;1.95;;;;;;;28.00;33.03;99626.34;6307411;28;20083;-70
2023/05/22 14:14:14;;;;;;;7.72;2.28;;;;;;;28.31;33.81;99630.84;6306133;28;20040;-69
2023/05/22 14:17:15;;;;;;;3.35;1.92;;;;;;;28.05;34.33;99631.06;6297096;28;20059;-69
2023/05/22 14:20:15;;;;;;;3.42;1.90;;;;;;;28.15;34.13;99626.03;6302815;28;20075;-69
2023/05/22 14:23:16;;;;;;;1.92;1.73;;;;;;;28.45;33.75;99628.03;6291667;28;20459;-71
2023/05/22 14:26:17;;;;;;;1.90;1.70;;;;;;;28.42;32.98;99625.81;6293549;28;20114;-70
2023/05/22 14:29:18;;;;;;;2.72;1.80;;;;;;;28.70;33.55;99617.28;6290296;28;20051;-70